sensor_id;sensor_type;location;lat;lon;timestamp;P1;durP1;ratioP1;P2;durP2;ratioP2
20906;SDS011;10613;50.966;5.814;2023-05-10T00:02:02;4.25;;;4.25;;
20906;SDS011;10613;50.966;5.814;2023-05-10T00:06:03;6.50;;;6.50;;
20906;SDS011;10613;50.966;5.814;2023-05-10T00:10:03;5.00;;;5.00;;
20906;SDS011;10613;50.966;5.814;2023-05-10T00:14:03;3.50;;;3.50;;
20906;SDS011;10613;50.966;5.814;2023-05-10T00:18:04;3.50;;;3.50;;
20906;SDS011;10613;50.966;5.814;2023-05-10T00:22:05;8.00;;;8.00;;
20906;SDS011;10613;50.966;5.814;2023-05-10T00:26:05;6.00;;;6.00;;
20906;SDS011;10613;50.966;5.814;2023-05-10T00:30:05;5.50;;;5.50;;
20906;SDS011;10613;50.966;5.814;2023-05-10T00:34:06;4.25;;;4.25;;
20906;SDS011;10613;50.966;5.814;2023-05-10T00:38:07;5.00;;;5.00;;
20906;SDS011;10613;50.966;5.814;2023-05-10T00:42:07;6.00;;;6.00;;
20906;SDS011;10613;50.966;5.814;2023-05-10T00:46:08;4.00;;;4.00;;
20906;SDS011;10613;50.966;5.814;2023-05-10T00:50:08;5.75;;;5.75;;
20906;SDS011;10613;50.966;5.814;2023-05-10T00:54:10;3.00;;;3.00;;
20906;SDS011;10613;50.966;5.814;2023-05-10T00:58:11;4.00;;;4.00;;
20906;SDS011;10613;50.966;5.814;2023-05-10T01:02:12;6.00;;;6.00;;
20906;SDS011;10613;50.966;5.814;2023-05-10T01:06:13;5.75;;;5.75;;
20906;SDS011;10613;50.966;5.814;2023-05-10T01:10:13;11.00;;;11.00;;
20906;SDS011;10613;50.966;5.814;2023-05-10T01:14:14;6.00;;;6.00;;
20906;SDS011;10613;50.966;5.814;2023-05-10T01:18:16;5.00;;;5.00;;
20906;SDS011;10613;50.966;5.814;2023-05-10T01:30:50;6.25;;;6.25;;
20906;SDS011;10613;50.966;5.814;2023-05-10T01:35:02;6.75;;;6.75;;
20906;SDS011;10613;50.966;5.814;2023-05-10T01:43:11;8.00;;;8.00;;
20906;SDS011;10613;50.966;5.814;2023-05-10T01:47:17;6.75;;;6.75;;
20906;SDS011;10613;50.966;5.814;2023-05-10T01:51:21;11.75;;;10.00;;
20906;SDS011;10613;50.966;5.814;2023-05-10T01:55:24;8.25;;;8.25;;
20906;SDS011;10613;50.966;5.814;2023-05-10T01:59:26;7.50;;;7.50;;
20906;SDS011;10613;50.966;5.814;2023-05-10T02:03:28;7.00;;;7.00;;
20906;SDS011;10613;50.966;5.814;2023-05-10T02:07:31;7.25;;;7.25;;
20906;SDS011;10613;50.966;5.814;2023-05-10T02:11:32;10.00;;;9.00;;
20906;SDS011;10613;50.966;5.814;2023-05-10T02:15:33;13.75;;;13.75;;
20906;SDS011;10613;50.966;5.814;2023-05-10T02:19:34;8.50;;;8.50;;
20906;SDS011;10613;50.966;5.814;2023-05-10T02:23:36;8.75;;;8.75;;
20906;SDS011;10613;50.966;5.814;2023-05-10T02:27:37;10.50;;;10.50;;
20906;SDS011;10613;50.966;5.814;2023-05-10T02:31:38;8.25;;;8.25;;
20906;SDS011;10613;50.966;5.814;2023-05-10T02:35:39;8.50;;;8.50;;
20906;SDS011;10613;50.966;5.814;2023-05-10T02:39:40;9.00;;;9.00;;
20906;SDS011;10613;50.966;5.814;2023-05-10T02:43:43;10.25;;;10.25;;
20906;SDS011;10613;50.966;5.814;2023-05-10T02:47:44;11.75;;;9.50;;
20906;SDS011;10613;50.966;5.814;2023-05-10T02:51:47;7.25;;;7.25;;
20906;SDS011;10613;50.966;5.814;2023-05-10T02:55:50;6.00;;;6.00;;
20906;SDS011;10613;50.966;5.814;2023-05-10T02:59:51;8.00;;;8.00;;
20906;SDS011;10613;50.966;5.814;2023-05-10T03:03:52;9.00;;;9.00;;
20906;SDS011;10613;50.966;5.814;2023-05-10T03:07:52;7.50;;;7.50;;
20906;SDS011;10613;50.966;5.814;2023-05-10T03:12:41;8.25;;;8.25;;
20906;SDS011;10613;50.966;5.814;2023-05-10T03:16:19;9.25;;;9.25;;
20906;SDS011;10613;50.966;5.814;2023-05-10T03:20:26;8.00;;;8.00;;
20906;SDS011;10613;50.966;5.814;2023-05-10T03:24:27;10.00;;;10.00;;
20906;SDS011;10613;50.966;5.814;2023-05-10T03:28:30;8.25;;;8.25;;
20906;SDS011;10613;50.966;5.814;2023-05-10T03:32:32;8.50;;;8.50;;
20906;SDS011;10613;50.966;5.814;2023-05-10T03:36:35;8.75;;;7.50;;
20906;SDS011;10613;50.966;5.814;2023-05-10T03:40:36;8.50;;;7.50;;
20906;SDS011;10613;50.966;5.814;2023-05-10T03:44:38;10.75;;;10.75;;
20906;SDS011;10613;50.966;5.814;2023-05-10T03:48:38;10.50;;;10.50;;
20906;SDS011;10613;50.966;5.814;2023-05-10T03:52:39;7.00;;;7.00;;
20906;SDS011;10613;50.966;5.814;2023-05-10T03:56:40;8.75;;;8.75;;
20906;SDS011;10613;50.966;5.814;2023-05-10T04:00:40;8.75;;;6.50;;
20906;SDS011;10613;50.966;5.814;2023-05-10T04:04:46;9.00;;;9.00;;
20906;SDS011;10613;50.966;5.814;2023-05-10T04:08:46;10.50;;;10.50;;
20906;SDS011;10613;50.966;5.814;2023-05-10T04:12:47;6.00;;;6.00;;
20906;SDS011;10613;50.966;5.814;2023-05-10T04:16:47;8.75;;;8.75;;
20906;SDS011;10613;50.966;5.814;2023-05-10T04:20:47;9.25;;;9.25;;
20906;SDS011;10613;50.966;5.814;2023-05-10T04:24:47;6.50;;;6.50;;
20906;SDS011;10613;50.966;5.814;2023-05-10T04:28:48;8.75;;;7.75;;
20906;SDS011;10613;50.966;5.814;2023-05-10T04:32:48;12.00;;;11.50;;
20906;SDS011;10613;50.966;5.814;2023-05-10T04:36:49;8.75;;;8.75;;
20906;SDS011;10613;50.966;5.814;2023-05-10T04:40:50;11.00;;;9.75;;
20906;SDS011;10613;50.966;5.814;2023-05-10T04:44:50;10.00;;;10.00;;
20906;SDS011;10613;50.966;5.814;2023-05-10T04:48:52;8.25;;;8.00;;
20906;SDS011;10613;50.966;5.814;2023-05-10T04:52:52;12.75;;;12.25;;
20906;SDS011;10613;50.966;5.814;2023-05-10T04:56:52;11.75;;;9.25;;
20906;SDS011;10613;50.966;5.814;2023-05-10T05:00:53;8.25;;;8.25;;
20906;SDS011;10613;50.966;5.814;2023-05-10T05:04:55;13.00;;;12.00;;
20906;SDS011;10613;50.966;5.814;2023-05-10T05:08:55;12.25;;;11.50;;
20906;SDS011;10613;50.966;5.814;2023-05-10T05:12:56;8.75;;;8.75;;
20906;SDS011;10613;50.966;5.814;2023-05-10T05:16:56;9.25;;;8.25;;
20906;SDS011;10613;50.966;5.814;2023-05-10T05:20:56;12.25;;;10.75;;
20906;SDS011;10613;50.966;5.814;2023-05-10T05:24:57;10.25;;;9.25;;
20906;SDS011;10613;50.966;5.814;2023-05-10T05:28:58;11.25;;;11.25;;
20906;SDS011;10613;50.966;5.814;2023-05-10T05:32:58;12.25;;;12.25;;
20906;SDS011;10613;50.966;5.814;2023-05-10T05:36:59;10.50;;;10.50;;
20906;SDS011;10613;50.966;5.814;2023-05-10T05:40:59;8.75;;;8.75;;
20906;SDS011;10613;50.966;5.814;2023-05-10T05:45:00;9.00;;;9.00;;
20906;SDS011;10613;50.966;5.814;2023-05-10T05:49:00;6.25;;;6.25;;
20906;SDS011;10613;50.966;5.814;2023-05-10T05:53:01;8.00;;;5.50;;
20906;SDS011;10613;50.966;5.814;2023-05-10T05:57:02;6.00;;;6.00;;
20906;SDS011;10613;50.966;5.814;2023-05-10T06:01:02;6.50;;;6.50;;
20906;SDS011;10613;50.966;5.814;2023-05-10T06:05:03;5.75;;;4.75;;
20906;SDS011;10613;50.966;5.814;2023-05-10T06:09:03;6.50;;;6.50;;
20906;SDS011;10613;50.966;5.814;2023-05-10T06:13:03;9.00;;;9.00;;
20906;SDS011;10613;50.966;5.814;2023-05-10T06:17:04;7.00;;;7.00;;
20906;SDS011;10613;50.966;5.814;2023-05-10T06:21:05;8.75;;;8.00;;
20906;SDS011;10613;50.966;5.814;2023-05-10T06:25:05;7.00;;;6.00;;
20906;SDS011;10613;50.966;5.814;2023-05-10T06:29:06;5.75;;;5.50;;
20906;SDS011;10613;50.966;5.814;2023-05-10T06:33:06;9.00;;;8.50;;
20906;SDS011;10613;50.966;5.814;2023-05-10T06:37:06;5.00;;;5.00;;
20906;SDS011;10613;50.966;5.814;2023-05-10T06:41:07;7.75;;;5.75;;
20906;SDS011;10613;50.966;5.814;2023-05-10T06:45:08;10.25;;;8.25;;
20906;SDS011;10613;50.966;5.814;2023-05-10T06:49:09;7.50;;;6.00;;
20906;SDS011;10613;50.966;5.814;2023-05-10T06:53:09;12.00;;;11.50;;
20906;SDS011;10613;50.966;5.814;2023-05-10T06:57:10;10.25;;;9.25;;
20906;SDS011;10613;50.966;5.814;2023-05-10T07:01:10;6.25;;;6.25;;
20906;SDS011;10613;50.966;5.814;2023-05-10T07:05:11;9.50;;;9.50;;
20906;SDS011;10613;50.966;5.814;2023-05-10T07:09:11;8.00;;;8.00;;
20906;SDS011;10613;50.966;5.814;2023-05-10T07:13:13;13.00;;;10.50;;
20906;SDS011;10613;50.966;5.814;2023-05-10T07:17:13;9.00;;;9.00;;
20906;SDS011;10613;50.966;5.814;2023-05-10T07:21:14;10.00;;;9.50;;
20906;SDS011;10613;50.966;5.814;2023-05-10T07:25:14;11.75;;;11.75;;
20906;SDS011;10613;50.966;5.814;2023-05-10T07:29:14;12.00;;;11.75;;
20906;SDS011;10613;50.966;5.814;2023-05-10T07:33:15;13.50;;;13.25;;
20906;SDS011;10613;50.966;5.814;2023-05-10T07:37:15;8.50;;;8.50;;
20906;SDS011;10613;50.966;5.814;2023-05-10T07:41:16;10.00;;;10.00;;
20906;SDS011;10613;50.966;5.814;2023-05-10T07:45:16;8.50;;;8.50;;
20906;SDS011;10613;50.966;5.814;2023-05-10T07:49:16;10.75;;;10.75;;
20906;SDS011;10613;50.966;5.814;2023-05-10T07:53:17;9.00;;;9.00;;
20906;SDS011;10613;50.966;5.814;2023-05-10T07:57:18;10.00;;;10.00;;
20906;SDS011;10613;50.966;5.814;2023-05-10T08:01:19;10.50;;;9.75;;
20906;SDS011;10613;50.966;5.814;2023-05-10T08:05:19;11.00;;;11.00;;
20906;SDS011;10613;50.966;5.814;2023-05-10T08:09:20;8.00;;;7.50;;
20906;SDS011;10613;50.966;5.814;2023-05-10T08:13:23;13.75;;;10.00;;
20906;SDS011;10613;50.966;5.814;2023-05-10T08:17:24;9.75;;;9.75;;
20906;SDS011;10613;50.966;5.814;2023-05-10T08:21:24;8.50;;;8.50;;
20906;SDS011;10613;50.966;5.814;2023-05-10T08:25:25;9.50;;;9.50;;
20906;SDS011;10613;50.966;5.814;2023-05-10T08:29:25;8.25;;;8.25;;
20906;SDS011;10613;50.966;5.814;2023-05-10T08:33:26;10.25;;;9.00;;
20906;SDS011;10613;50.966;5.814;2023-05-10T08:37:26;12.50;;;10.75;;
20906;SDS011;10613;50.966;5.814;2023-05-10T08:41:29;12.75;;;11.00;;
20906;SDS011;10613;50.966;5.814;2023-05-10T08:45:32;9.75;;;9.50;;
20906;SDS011;10613;50.966;5.814;2023-05-10T08:49:33;9.25;;;9.25;;
20906;SDS011;10613;50.966;5.814;2023-05-10T08:53:34;9.50;;;9.50;;
20906;SDS011;10613;50.966;5.814;2023-05-10T08:57:36;9.50;;;8.25;;
20906;SDS011;10613;50.966;5.814;2023-05-10T09:01:36;8.50;;;7.00;;
20906;SDS011;10613;50.966;5.814;2023-05-10T09:05:39;7.00;;;6.00;;
20906;SDS011;10613;50.966;5.814;2023-05-10T09:09:41;5.00;;;5.00;;
20906;SDS011;10613;50.966;5.814;2023-05-10T09:13:42;8.25;;;8.25;;
20906;SDS011;10613;50.966;5.814;2023-05-10T09:17:43;7.00;;;7.00;;
20906;SDS011;10613;50.966;5.814;2023-05-10T09:21:44;7.25;;;5.75;;
20906;SDS011;10613;50.966;5.814;2023-05-10T09:25:44;8.75;;;8.75;;
20906;SDS011;10613;50.966;5.814;2023-05-10T09:29:45;9.25;;;9.25;;
20906;SDS011;10613;50.966;5.814;2023-05-10T09:33:46;6.75;;;6.50;;
20906;SDS011;10613;50.966;5.814;2023-05-10T09:37:48;6.25;;;6.25;;
20906;SDS011;10613;50.966;5.814;2023-05-10T09:41:48;6.25;;;6.25;;
20906;SDS011;10613;50.966;5.814;2023-05-10T09:45:49;8.75;;;7.25;;
20906;SDS011;10613;50.966;5.814;2023-05-10T09:49:53;10.00;;;9.00;;
20906;SDS011;10613;50.966;5.814;2023-05-10T09:54:10;8.00;;;6.50;;
20906;SDS011;10613;50.966;5.814;2023-05-10T09:58:14;8.00;;;8.00;;
20906;SDS011;10613;50.966;5.814;2023-05-10T10:02:15;6.00;;;6.00;;
20906;SDS011;10613;50.966;5.814;2023-05-10T10:06:18;6.25;;;6.25;;
20906;SDS011;10613;50.966;5.814;2023-05-10T10:10:18;5.75;;;5.75;;
20906;SDS011;10613;50.966;5.814;2023-05-10T10:14:19;5.75;;;5.75;;
20906;SDS011;10613;50.966;5.814;2023-05-10T10:18:20;5.25;;;5.25;;
20906;SDS011;10613;50.966;5.814;2023-05-10T10:22:23;7.50;;;6.00;;
20906;SDS011;10613;50.966;5.814;2023-05-10T10:26:24;7.00;;;7.00;;
20906;SDS011;10613;50.966;5.814;2023-05-10T10:34:37;5.75;;;5.75;;
20906;SDS011;10613;50.966;5.814;2023-05-10T10:42:48;7.00;;;7.00;;
20906;SDS011;10613;50.966;5.814;2023-05-10T10:47:05;5.75;;;5.75;;
20906;SDS011;10613;50.966;5.814;2023-05-10T10:51:08;6.50;;;6.50;;
20906;SDS011;10613;50.966;5.814;2023-05-10T10:55:09;5.00;;;5.00;;
20906;SDS011;10613;50.966;5.814;2023-05-10T10:59:10;5.75;;;5.75;;
20906;SDS011;10613;50.966;5.814;2023-05-10T11:03:11;2.75;;;2.25;;
20906;SDS011;10613;50.966;5.814;2023-05-10T11:07:18;9.00;;;8.50;;
20906;SDS011;10613;50.966;5.814;2023-05-10T11:11:19;6.50;;;6.00;;
20906;SDS011;10613;50.966;5.814;2023-05-10T11:15:27;5.50;;;4.50;;
20906;SDS011;10613;50.966;5.814;2023-05-10T11:19:28;7.25;;;6.00;;
20906;SDS011;10613;50.966;5.814;2023-05-10T11:27:32;8.75;;;8.75;;
20906;SDS011;10613;50.966;5.814;2023-05-10T11:31:33;6.75;;;6.75;;
20906;SDS011;10613;50.966;5.814;2023-05-10T11:35:37;6.25;;;6.25;;
20906;SDS011;10613;50.966;5.814;2023-05-10T11:39:38;8.75;;;7.00;;
20906;SDS011;10613;50.966;5.814;2023-05-10T11:43:38;8.00;;;8.00;;
20906;SDS011;10613;50.966;5.814;2023-05-10T11:47:39;9.25;;;9.25;;
20906;SDS011;10613;50.966;5.814;2023-05-10T11:51:41;6.00;;;6.00;;
20906;SDS011;10613;50.966;5.814;2023-05-10T11:55:43;6.75;;;6.75;;
20906;SDS011;10613;50.966;5.814;2023-05-10T11:59:44;5.00;;;3.00;;
20906;SDS011;10613;50.966;5.814;2023-05-10T12:03:44;6.00;;;6.00;;
20906;SDS011;10613;50.966;5.814;2023-05-10T12:07:45;5.00;;;5.00;;
20906;SDS011;10613;50.966;5.814;2023-05-10T12:11:45;10.00;;;10.00;;
20906;SDS011;10613;50.966;5.814;2023-05-10T12:15:45;5.00;;;5.00;;
20906;SDS011;10613;50.966;5.814;2023-05-10T12:19:46;6.75;;;6.75;;
20906;SDS011;10613;50.966;5.814;2023-05-10T12:23:48;6.25;;;6.25;;
20906;SDS011;10613;50.966;5.814;2023-05-10T12:27:56;6.75;;;6.75;;
20906;SDS011;10613;50.966;5.814;2023-05-10T12:31:58;6.00;;;6.00;;
20906;SDS011;10613;50.966;5.814;2023-05-10T12:35:58;8.00;;;8.00;;
20906;SDS011;10613;50.966;5.814;2023-05-10T12:39:59;7.00;;;7.00;;
20906;SDS011;10613;50.966;5.814;2023-05-10T12:43:59;6.50;;;6.50;;
20906;SDS011;10613;50.966;5.814;2023-05-10T12:48:00;5.00;;;5.00;;
20906;SDS011;10613;50.966;5.814;2023-05-10T12:52:00;3.00;;;3.00;;
20906;SDS011;10613;50.966;5.814;2023-05-10T12:56:00;6.75;;;6.75;;
20906;SDS011;10613;50.966;5.814;2023-05-10T13:00:01;3.00;;;3.00;;
20906;SDS011;10613;50.966;5.814;2023-05-10T13:04:01;8.00;;;7.00;;
20906;SDS011;10613;50.966;5.814;2023-05-10T13:08:02;4.50;;;4.50;;
20906;SDS011;10613;50.966;5.814;2023-05-10T13:12:02;4.50;;;4.50;;
20906;SDS011;10613;50.966;5.814;2023-05-10T13:16:03;5.50;;;5.50;;
20906;SDS011;10613;50.966;5.814;2023-05-10T13:20:03;6.00;;;6.00;;
20906;SDS011;10613;50.966;5.814;2023-05-10T13:24:04;6.50;;;6.50;;
20906;SDS011;10613;50.966;5.814;2023-05-10T13:28:05;10.00;;;10.00;;
20906;SDS011;10613;50.966;5.814;2023-05-10T13:32:06;7.00;;;6.75;;
20906;SDS011;10613;50.966;5.814;2023-05-10T13:36:06;6.00;;;6.00;;
20906;SDS011;10613;50.966;5.814;2023-05-10T13:40:07;5.00;;;5.00;;
20906;SDS011;10613;50.966;5.814;2023-05-10T13:44:07;3.00;;;3.00;;
20906;SDS011;10613;50.966;5.814;2023-05-10T13:48:08;5.00;;;5.00;;
20906;SDS011;10613;50.966;5.814;2023-05-10T13:52:08;7.00;;;7.00;;
20906;SDS011;10613;50.966;5.814;2023-05-10T13:56:10;6.00;;;6.00;;
20906;SDS011;10613;50.966;5.814;2023-05-10T14:00:10;7.00;;;7.00;;
20906;SDS011;10613;50.966;5.814;2023-05-10T14:04:10;5.50;;;5.50;;
20906;SDS011;10613;50.966;5.814;2023-05-10T14:08:11;5.50;;;5.50;;
20906;SDS011;10613;50.966;5.814;2023-05-10T14:12:13;5.00;;;5.00;;
20906;SDS011;10613;50.966;5.814;2023-05-10T14:16:14;3.50;;;3.50;;
20906;SDS011;10613;50.966;5.814;2023-05-10T14:20:15;5.00;;;5.00;;
20906;SDS011;10613;50.966;5.814;2023-05-10T14:24:15;5.00;;;5.00;;
20906;SDS011;10613;50.966;5.814;2023-05-10T14:28:15;3.75;;;3.75;;
20906;SDS011;10613;50.966;5.814;2023-05-10T14:32:17;5.50;;;5.00;;
20906;SDS011;10613;50.966;5.814;2023-05-10T14:36:17;6.50;;;6.50;;
20906;SDS011;10613;50.966;5.814;2023-05-10T14:40:18;4.00;;;4.00;;
20906;SDS011;10613;50.966;5.814;2023-05-10T14:44:18;5.00;;;5.00;;
20906;SDS011;10613;50.966;5.814;2023-05-10T14:48:19;6.00;;;6.00;;
20906;SDS011;10613;50.966;5.814;2023-05-10T14:52:21;5.50;;;5.50;;
20906;SDS011;10613;50.966;5.814;2023-05-10T14:56:21;5.25;;;5.00;;
20906;SDS011;10613;50.966;5.814;2023-05-10T15:00:22;3.00;;;3.00;;
20906;SDS011;10613;50.966;5.814;2023-05-10T15:04:22;6.00;;;6.00;;
20906;SDS011;10613;50.966;5.814;2023-05-10T15:08:23;3.00;;;3.00;;
20906;SDS011;10613;50.966;5.814;2023-05-10T15:12:24;5.00;;;5.00;;
20906;SDS011;10613;50.966;5.814;2023-05-10T15:16:25;5.00;;;5.00;;
20906;SDS011;10613;50.966;5.814;2023-05-10T15:20:25;5.00;;;5.00;;
20906;SDS011;10613;50.966;5.814;2023-05-10T15:24:25;3.00;;;3.00;;
20906;SDS011;10613;50.966;5.814;2023-05-10T15:28:26;3.00;;;3.00;;
20906;SDS011;10613;50.966;5.814;2023-05-10T15:32:26;6.00;;;6.00;;
20906;SDS011;10613;50.966;5.814;2023-05-10T15:36:31;6.00;;;6.00;;
20906;SDS011;10613;50.966;5.814;2023-05-10T15:40:31;5.00;;;5.00;;
20906;SDS011;10613;50.966;5.814;2023-05-10T15:44:31;6.00;;;6.00;;
20906;SDS011;10613;50.966;5.814;2023-05-10T15:48:35;4.00;;;4.00;;
20906;SDS011;10613;50.966;5.814;2023-05-10T15:52:35;3.00;;;3.00;;
20906;SDS011;10613;50.966;5.814;2023-05-10T15:56:36;5.00;;;5.00;;
20906;SDS011;10613;50.966;5.814;2023-05-10T16:00:37;6.50;;;6.50;;
20906;SDS011;10613;50.966;5.814;2023-05-10T16:04:38;3.50;;;3.50;;
20906;SDS011;10613;50.966;5.814;2023-05-10T16:08:38;7.00;;;7.00;;
20906;SDS011;10613;50.966;5.814;2023-05-10T16:12:38;6.00;;;6.00;;
20906;SDS011;10613;50.966;5.814;2023-05-10T16:16:39;6.50;;;6.50;;
20906;SDS011;10613;50.966;5.814;2023-05-10T16:20:40;6.00;;;6.00;;
20906;SDS011;10613;50.966;5.814;2023-05-10T16:24:40;3.00;;;3.00;;
20906;SDS011;10613;50.966;5.814;2023-05-10T16:28:41;7.00;;;7.00;;
20906;SDS011;10613;50.966;5.814;2023-05-10T16:32:41;6.25;;;6.25;;
20906;SDS011;10613;50.966;5.814;2023-05-10T16:36:42;5.50;;;5.50;;
20906;SDS011;10613;50.966;5.814;2023-05-10T16:40:42;5.25;;;5.25;;
20906;SDS011;10613;50.966;5.814;2023-05-10T16:44:42;5.00;;;5.00;;
20906;SDS011;10613;50.966;5.814;2023-05-10T16:48:43;5.00;;;5.00;;
20906;SDS011;10613;50.966;5.814;2023-05-10T16:52:43;5.75;;;5.75;;
20906;SDS011;10613;50.966;5.814;2023-05-10T16:56:43;5.00;;;5.00;;
20906;SDS011;10613;50.966;5.814;2023-05-10T17:00:44;6.25;;;6.25;;
20906;SDS011;10613;50.966;5.814;2023-05-10T17:04:44;4.50;;;4.50;;
20906;SDS011;10613;50.966;5.814;2023-05-10T17:08:45;5.25;;;5.25;;
20906;SDS011;10613;50.966;5.814;2023-05-10T17:12:45;5.00;;;5.00;;
20906;SDS011;10613;50.966;5.814;2023-05-10T17:16:46;6.00;;;6.00;;
20906;SDS011;10613;50.966;5.814;2023-05-10T17:20:47;5.50;;;5.50;;
20906;SDS011;10613;50.966;5.814;2023-05-10T17:24:47;3.50;;;3.50;;
20906;SDS011;10613;50.966;5.814;2023-05-10T17:28:48;5.50;;;5.50;;
20906;SDS011;10613;50.966;5.814;2023-05-10T17:32:48;5.25;;;5.25;;
20906;SDS011;10613;50.966;5.814;2023-05-10T17:36:48;5.75;;;5.75;;
20906;SDS011;10613;50.966;5.814;2023-05-10T17:40:49;6.50;;;6.50;;
20906;SDS011;10613;50.966;5.814;2023-05-10T17:44:50;5.75;;;5.75;;
20906;SDS011;10613;50.966;5.814;2023-05-10T17:48:50;6.00;;;6.00;;
20906;SDS011;10613;50.966;5.814;2023-05-10T17:52:51;8.00;;;8.00;;
20906;SDS011;10613;50.966;5.814;2023-05-10T17:56:51;4.50;;;4.50;;
20906;SDS011;10613;50.966;5.814;2023-05-10T18:00:52;6.00;;;6.00;;
20906;SDS011;10613;50.966;5.814;2023-05-10T18:04:53;6.25;;;6.25;;
20906;SDS011;10613;50.966;5.814;2023-05-10T18:08:54;5.50;;;5.50;;
20906;SDS011;10613;50.966;5.814;2023-05-10T18:12:55;3.00;;;3.00;;
20906;SDS011;10613;50.966;5.814;2023-05-10T18:16:57;5.50;;;5.50;;
20906;SDS011;10613;50.966;5.814;2023-05-10T18:20:57;3.50;;;3.50;;
20906;SDS011;10613;50.966;5.814;2023-05-10T18:24:58;5.50;;;5.50;;
20906;SDS011;10613;50.966;5.814;2023-05-10T18:28:58;4.50;;;4.50;;
20906;SDS011;10613;50.966;5.814;2023-05-10T18:32:59;6.00;;;6.00;;
20906;SDS011;10613;50.966;5.814;2023-05-10T18:36:59;9.50;;;9.50;;
20906;SDS011;10613;50.966;5.814;2023-05-10T18:41:01;5.50;;;5.50;;
20906;SDS011;10613;50.966;5.814;2023-05-10T18:45:02;6.00;;;6.00;;
20906;SDS011;10613;50.966;5.814;2023-05-10T18:49:02;6.75;;;6.75;;
20906;SDS011;10613;50.966;5.814;2023-05-10T18:53:03;5.00;;;5.00;;
20906;SDS011;10613;50.966;5.814;2023-05-10T18:57:03;5.00;;;5.00;;
20906;SDS011;10613;50.966;5.814;2023-05-10T19:01:04;6.00;;;6.00;;
20906;SDS011;10613;50.966;5.814;2023-05-10T19:05:04;7.00;;;7.00;;
20906;SDS011;10613;50.966;5.814;2023-05-10T19:09:05;7.00;;;7.00;;
20906;SDS011;10613;50.966;5.814;2023-05-10T19:13:05;6.00;;;6.00;;
20906;SDS011;10613;50.966;5.814;2023-05-10T19:17:05;3.25;;;3.25;;
20906;SDS011;10613;50.966;5.814;2023-05-10T19:21:06;6.50;;;6.25;;
20906;SDS011;10613;50.966;5.814;2023-05-10T19:25:08;6.00;;;6.00;;
20906;SDS011;10613;50.966;5.814;2023-05-10T19:29:08;6.25;;;6.25;;
20906;SDS011;10613;50.966;5.814;2023-05-10T19:33:08;7.25;;;5.75;;
20906;SDS011;10613;50.966;5.814;2023-05-10T19:37:09;6.00;;;6.00;;
20906;SDS011;10613;50.966;5.814;2023-05-10T19:41:10;5.00;;;5.00;;
20906;SDS011;10613;50.966;5.814;2023-05-10T19:45:10;5.00;;;5.00;;
20906;SDS011;10613;50.966;5.814;2023-05-10T19:49:11;5.00;;;5.00;;
20906;SDS011;10613;50.966;5.814;2023-05-10T19:53:11;5.00;;;5.00;;
20906;SDS011;10613;50.966;5.814;2023-05-10T19:57:11;6.50;;;6.25;;
20906;SDS011;10613;50.966;5.814;2023-05-10T20:01:12;7.00;;;7.00;;
20906;SDS011;10613;50.966;5.814;2023-05-10T20:05:12;6.00;;;6.00;;
20906;SDS011;10613;50.966;5.814;2023-05-10T20:09:13;5.00;;;5.00;;
20906;SDS011;10613;50.966;5.814;2023-05-10T20:13:13;6.00;;;6.00;;
20906;SDS011;10613;50.966;5.814;2023-05-10T20:17:14;3.00;;;3.00;;
20906;SDS011;10613;50.966;5.814;2023-05-10T20:21:14;5.00;;;5.00;;
20906;SDS011;10613;50.966;5.814;2023-05-10T20:25:15;7.00;;;7.00;;
20906;SDS011;10613;50.966;5.814;2023-05-10T20:29:15;5.00;;;5.00;;
20906;SDS011;10613;50.966;5.814;2023-05-10T20:33:16;5.50;;;5.50;;
20906;SDS011;10613;50.966;5.814;2023-05-10T20:37:16;4.75;;;4.75;;
20906;SDS011;10613;50.966;5.814;2023-05-10T20:41:16;7.25;;;7.25;;
20906;SDS011;10613;50.966;5.814;2023-05-10T20:45:17;5.00;;;5.00;;
20906;SDS011;10613;50.966;5.814;2023-05-10T20:49:17;7.00;;;7.00;;
20906;SDS011;10613;50.966;5.814;2023-05-10T20:53:18;5.50;;;5.50;;
20906;SDS011;10613;50.966;5.814;2023-05-10T20:57:19;4.50;;;4.50;;
20906;SDS011;10613;50.966;5.814;2023-05-10T21:01:19;4.00;;;4.00;;
20906;SDS011;10613;50.966;5.814;2023-05-10T21:05:19;6.00;;;6.00;;
20906;SDS011;10613;50.966;5.814;2023-05-10T21:09:20;6.00;;;6.00;;
20906;SDS011;10613;50.966;5.814;2023-05-10T21:13:20;5.00;;;5.00;;
20906;SDS011;10613;50.966;5.814;2023-05-10T21:17:20;5.50;;;5.50;;
20906;SDS011;10613;50.966;5.814;2023-05-10T21:21:21;3.50;;;3.50;;
20906;SDS011;10613;50.966;5.814;2023-05-10T21:25:21;5.00;;;5.00;;
20906;SDS011;10613;50.966;5.814;2023-05-10T21:29:22;4.00;;;4.00;;
20906;SDS011;10613;50.966;5.814;2023-05-10T21:33:22;5.00;;;5.00;;
20906;SDS011;10613;50.966;5.814;2023-05-10T21:37:23;3.50;;;3.50;;
20906;SDS011;10613;50.966;5.814;2023-05-10T21:41:23;4.50;;;4.50;;
20906;SDS011;10613;50.966;5.814;2023-05-10T21:45:23;5.75;;;5.75;;
20906;SDS011;10613;50.966;5.814;2023-05-10T21:49:24;4.75;;;4.00;;
20906;SDS011;10613;50.966;5.814;2023-05-10T21:53:24;5.00;;;5.00;;
20906;SDS011;10613;50.966;5.814;2023-05-10T21:57:24;5.25;;;5.25;;
20906;SDS011;10613;50.966;5.814;2023-05-10T22:01:25;6.00;;;6.00;;
20906;SDS011;10613;50.966;5.814;2023-05-10T22:05:25;5.50;;;5.50;;
20906;SDS011;10613;50.966;5.814;2023-05-10T22:09:25;5.00;;;5.00;;
20906;SDS011;10613;50.966;5.814;2023-05-10T22:13:26;6.00;;;6.00;;
20906;SDS011;10613;50.966;5.814;2023-05-10T22:17:26;5.00;;;5.00;;
20906;SDS011;10613;50.966;5.814;2023-05-10T22:21:26;6.00;;;6.00;;
20906;SDS011;10613;50.966;5.814;2023-05-10T22:25:27;3.50;;;3.50;;
20906;SDS011;10613;50.966;5.814;2023-05-10T22:29:30;3.00;;;3.00;;
20906;SDS011;10613;50.966;5.814;2023-05-10T22:33:31;5.00;;;5.00;;
20906;SDS011;10613;50.966;5.814;2023-05-10T22:37:31;2.50;;;2.50;;
20906;SDS011;10613;50.966;5.814;2023-05-10T22:41:31;5.00;;;5.00;;
20906;SDS011;10613;50.966;5.814;2023-05-10T22:45:32;5.00;;;5.00;;
20906;SDS011;10613;50.966;5.814;2023-05-10T22:49:32;5.00;;;5.00;;
20906;SDS011;10613;50.966;5.814;2023-05-10T22:53:33;5.50;;;5.50;;
20906;SDS011;10613;50.966;5.814;2023-05-10T22:57:33;6.00;;;6.00;;
20906;SDS011;10613;50.966;5.814;2023-05-10T23:01:33;3.00;;;3.00;;
20906;SDS011;10613;50.966;5.814;2023-05-10T23:05:34;9.75;;;7.75;;
20906;SDS011;10613;50.966;5.814;2023-05-10T23:09:34;6.00;;;6.00;;
20906;SDS011;10613;50.966;5.814;2023-05-10T23:13:34;4.50;;;4.50;;
20906;SDS011;10613;50.966;5.814;2023-05-10T23:17:35;5.25;;;5.25;;
20906;SDS011;10613;50.966;5.814;2023-05-10T23:21:35;4.50;;;4.50;;
20906;SDS011;10613;50.966;5.814;2023-05-10T23:25:36;5.00;;;5.00;;
20906;SDS011;10613;50.966;5.814;2023-05-10T23:29:36;5.00;;;3.00;;
20906;SDS011;10613;50.966;5.814;2023-05-10T23:33:37;6.00;;;6.00;;
20906;SDS011;10613;50.966;5.814;2023-05-10T23:37:37;5.00;;;5.00;;
20906;SDS011;10613;50.966;5.814;2023-05-10T23:41:38;2.00;;;2.00;;
20906;SDS011;10613;50.966;5.814;2023-05-10T23:45:39;6.00;;;6.00;;
20906;SDS011;10613;50.966;5.814;2023-05-10T23:49:40;4.50;;;4.50;;
20906;SDS011;10613;50.966;5.814;2023-05-10T23:53:41;5.50;;;5.50;;
20906;SDS011;10613;50.966;5.814;2023-05-10T23:57:41;9.00;;;7.00;;
